KPCZ

Waupaca Municipal Airport

Waupaca, Wisconsin, USA
METAR KPCZ 150055Z AUTO 21004KT 10SM CLR 26/18 A2992 RMK AO2 T02560180
Observed Flight Rules
Aug-15 @ 00:55 UTC (10 minutes ago) Visual Flight Rules
Wind Visibility Clouds
210° at 4 knots 10 miles
  • Clear skies
Temperatures Readings
Current 26°C / 79°F
Dewpoint 18°C / 64°F
Humidity 61%
Altimeter 29.92" Hg
Pressure 1013 hPa
Elevation 252
METAR KPCZ 150055Z AUTO 21004KT 10SM CLR 26/18 A2992 RMK AO2 T02560180
Observed Flight Rules
Aug-15 @ 00:55 UTC
(10 minutes ago)
VFR
Wind Visibility
210° at 4 knots 10 miles
Clouds
  • Clear skies
Temperature Dewpoint
26°C / 79°F 18°C / 64°F
Humidity Altimeter Pressure
61% 29.92" Hg 1013 hPa